Time;durP1;ratioP1;P1;durP2;ratioP2;P2;SDS_P1;SDS_P2;PMS_P1;PMS_P2;Temp;Humidity;BMP_temperature;BMP_pressure;BME280_temperature;BME280_humidity;BME280_pressure;Samples;Min_cycle;Max_cycle;Signal;HPM_P1;HPM_P2
2021/04/01 00:00:11;;;;;;;0.50;0.20;;;4.20;99.90;;;;;;4979564;28;20061;-65
2021/04/01 00:02:37;;;;;;;0.38;0.30;;;4.20;99.90;;;;;;4981503;28;20141;-66
2021/04/01 00:05:08;;;;;;;2.33;0.47;;;4.20;99.90;;;;;;4975792;28;20050;-68
2021/04/01 00:07:35;;;;;;;1.08;0.35;;;4.20;99.90;;;;;;4980494;28;20059;-64
2021/04/01 00:10:04;;;;;;;2.03;0.32;;;4.20;99.90;;;;;;4980107;28;20046;-68
2021/04/01 00:12:31;;;;;;;0.30;0.30;;;4.10;99.90;;;;;;4982013;28;20058;-64
2021/04/01 00:14:57;;;;;;;2.08;0.73;;;4.10;99.90;;;;;;4982687;28;20307;-67
2021/04/01 00:17:25;;;;;;;1.50;0.38;;;4.10;99.90;;;;;;4981083;28;20532;-67
2021/04/01 00:19:52;;;;;;;0.13;0.13;;;4.00;99.90;;;;;;4980323;28;20050;-65
2021/04/01 00:22:18;;;;;;;2.70;0.35;;;4.00;99.90;;;;;;4979170;28;20058;-66
2021/04/01 00:24:45;;;;;;;0.50;0.30;;;4.00;99.90;;;;;;4977999;28;20054;-66
2021/04/01 00:27:11;;;;;;;0.40;0.40;;;3.90;99.90;;;;;;4978817;28;20050;-63
2021/04/01 00:29:38;;;;;;;0.45;0.30;;;3.90;99.90;;;;;;4977123;28;20358;-66
2021/04/01 00:32:05;;;;;;;1.33;0.40;;;3.80;99.90;;;;;;4979276;28;20113;-69
2021/04/01 00:34:31;;;;;;;0.50;0.50;;;3.80;99.90;;;;;;4982604;28;20388;-64
2021/04/01 00:36:58;;;;;;;1.70;0.22;;;3.80;99.90;;;;;;4981927;28;20141;-64
2021/04/01 00:39:24;;;;;;;0.75;0.47;;;3.80;99.90;;;;;;4981348;28;20062;-63
2021/04/01 00:41:51;;;;;;;1.00;0.90;;;3.70;99.90;;;;;;4977998;28;20108;-66
2021/04/01 00:44:17;;;;;;;0.73;0.43;;;3.80;99.90;;;;;;4974994;28;20065;-64
2021/04/01 00:46:47;;;;;;;0.50;0.40;;;3.70;99.90;;;;;;4975895;28;20056;-63
2021/04/01 00:49:15;;;;;;;0.60;0.60;;;3.70;99.90;;;;;;4979109;28;20049;-63
2021/04/01 00:51:43;;;;;;;0.50;0.50;;;3.70;99.90;;;;;;4979588;28;20050;-66
2021/04/01 00:54:09;;;;;;;2.13;0.65;;;3.60;99.90;;;;;;4977698;28;20046;-65
2021/04/01 00:56:36;;;;;;;1.27;0.50;;;3.60;99.90;;;;;;4978276;28;20054;-65
2021/04/01 00:59:04;;;;;;;1.60;0.73;;;3.60;99.90;;;;;;4979689;28;20043;-65
2021/04/01 01:01:45;;;;;;;0.93;0.93;;;3.70;99.90;;;;;;4979618;28;20042;-65
2021/04/01 01:04:13;;;;;;;4.10;0.40;;;3.70;99.90;;;;;;4979808;28;20050;-66
2021/04/01 01:06:40;;;;;;;0.40;0.40;;;3.60;99.90;;;;;;4978978;28;20793;-65
2021/04/01 01:09:08;;;;;;;0.70;0.40;;;3.60;99.90;;;;;;4981111;28;20050;-67
2021/04/01 01:11:35;;;;;;;0.68;0.40;;;3.60;99.90;;;;;;4979205;28;20054;-67
2021/04/01 01:14:03;;;;;;;1.85;0.60;;;3.60;99.90;;;;;;4975158;28;20050;-66
2021/04/01 01:16:31;;;;;;;1.52;0.47;;;3.60;99.90;;;;;;4980221;28;20057;-69
2021/04/01 01:18:58;;;;;;;2.30;0.40;;;3.60;99.90;;;;;;4980360;28;20073;-69
2021/04/01 01:21:25;;;;;;;2.50;0.52;;;3.60;99.90;;;;;;4977778;28;20369;-66
2021/04/01 01:23:52;;;;;;;0.55;0.50;;;3.60;99.90;;;;;;4979146;28;20072;-67
2021/04/01 01:26:19;;;;;;;1.55;0.63;;;3.60;99.90;;;;;;4977873;28;20463;-68
2021/04/01 01:28:46;;;;;;;0.95;0.50;;;3.60;99.90;;;;;;4979991;28;20429;-70
2021/04/01 01:31:15;;;;;;;0.95;0.70;;;3.60;99.90;;;;;;4981100;28;20109;-65
2021/04/01 01:33:43;;;;;;;0.82;0.40;;;3.60;99.90;;;;;;4979843;28;20050;-66
2021/04/01 01:36:12;;;;;;;0.95;0.75;;;3.60;99.90;;;;;;4980112;28;20051;-65
2021/04/01 01:38:39;;;;;;;0.70;0.30;;;3.60;99.90;;;;;;4979183;28;20054;-66
2021/04/01 01:41:06;;;;;;;1.77;0.60;;;3.60;99.90;;;;;;4977943;28;20069;-69
2021/04/01 01:43:34;;;;;;;1.50;0.70;;;3.60;99.90;;;;;;4978879;28;20050;-63
2021/04/01 01:46:01;;;;;;;0.57;0.50;;;3.50;99.90;;;;;;4978966;28;20443;-64
2021/04/01 01:48:27;;;;;;;2.05;0.75;;;3.50;99.90;;;;;;4979513;28;20046;-63
2021/04/01 01:50:55;;;;;;;0.45;0.38;;;3.50;99.90;;;;;;4980222;28;20066;-66
2021/04/01 01:53:21;;;;;;;1.55;0.80;;;3.50;99.90;;;;;;4977997;28;20050;-63
2021/04/01 01:55:48;;;;;;;1.75;0.82;;;3.40;99.90;;;;;;4977825;28;20050;-66
2021/04/01 01:58:14;;;;;;;1.75;0.60;;;3.50;99.90;;;;;;4977014;28;20138;-65
2021/04/01 02:00:48;;;;;;;3.67;1.17;;;3.40;99.90;;;;;;4991619;28;20499;-71
2021/04/01 02:03:16;;;;;;;1.73;0.47;;;3.50;99.90;;;;;;4977319;28;20138;-64
2021/04/01 02:05:42;;;;;;;0.93;0.63;;;3.40;99.90;;;;;;4972706;28;20050;-66
2021/04/01 02:08:12;;;;;;;1.25;0.52;;;3.50;99.90;;;;;;4974688;28;20161;-65
2021/04/01 02:10:49;;;;;;;1.45;0.80;;;3.40;99.90;;;;;;4980529;28;20061;-65
2021/04/01 02:13:21;;;;;;;0.82;0.50;;;3.40;99.90;;;;;;4978641;28;20039;-65
2021/04/01 02:15:51;;;;;;;3.13;1.00;;;3.40;99.90;;;;;;4980126;28;20543;-63
2021/04/01 02:18:24;;;;;;;3.00;0.80;;;3.40;99.90;;;;;;4977607;28;20121;-68
2021/04/01 02:20:52;;;;;;;0.95;0.50;;;3.30;99.90;;;;;;4979609;28;20050;-71
2021/04/01 02:23:21;;;;;;;0.47;0.38;;;3.30;99.90;;;;;;4977723;28;20084;-67
2021/04/01 02:25:49;;;;;;;3.13;0.63;;;3.30;99.90;;;;;;4980739;28;20384;-67
2021/04/01 02:28:17;;;;;;;1.27;0.57;;;3.20;99.90;;;;;;4975439;28;20120;-67
2021/04/01 02:30:47;;;;;;;1.88;0.52;;;3.20;99.90;;;;;;4979934;28;20043;-63
2021/04/01 02:33:14;;;;;;;0.60;0.40;;;3.30;99.90;;;;;;4978112;28;20058;-70
2021/04/01 02:35:40;;;;;;;0.60;0.40;;;3.20;99.90;;;;;;4980977;28;20070;-66
2021/04/01 02:38:07;;;;;;;3.60;0.50;;;3.20;99.90;;;;;;4977338;28;20061;-64
2021/04/01 02:40:35;;;;;;;1.67;0.50;;;3.20;99.90;;;;;;4990036;28;20718;-67
2021/04/01 02:43:03;;;;;;;0.40;0.40;;;3.20;99.90;;;;;;4976502;28;20101;-63
2021/04/01 02:45:29;;;;;;;1.05;0.60;;;3.10;99.90;;;;;;4979715;28;20073;-68
2021/04/01 02:47:56;;;;;;;0.50;0.45;;;3.10;99.90;;;;;;4977816;28;20104;-66
2021/04/01 02:50:22;;;;;;;0.45;0.30;;;3.10;99.90;;;;;;4978104;28;20059;-63
2021/04/01 02:52:49;;;;;;;2.83;0.50;;;3.10;99.90;;;;;;4978915;28;20780;-65
2021/04/01 02:55:16;;;;;;;1.85;0.50;;;3.10;99.90;;;;;;4980375;28;20122;-63
2021/04/01 02:57:42;;;;;;;1.25;0.50;;;3.10;99.90;;;;;;4976900;28;20620;-63
2021/04/01 03:00:15;;;;;;;0.85;0.40;;;3.10;99.90;;;;;;4978403;28;20730;-65
2021/04/01 03:02:45;;;;;;;0.82;0.28;;;3.00;99.90;;;;;;4978837;28;20058;-64
2021/04/01 03:05:12;;;;;;;3.20;0.85;;;3.00;99.90;;;;;;4977124;28;20493;-63
2021/04/01 03:07:40;;;;;;;1.63;0.88;;;3.00;99.90;;;;;;4977976;28;20527;-71
2021/04/01 03:10:10;;;;;;;2.78;0.40;;;3.10;99.90;;;;;;4978364;28;20046;-64
2021/04/01 03:12:36;;;;;;;1.17;0.43;;;3.10;99.90;;;;;;4972055;28;20115;-63
2021/04/01 03:15:04;;;;;;;0.88;0.25;;;3.10;99.90;;;;;;4976407;28;20051;-64
2021/04/01 03:17:31;;;;;;;0.30;0.20;;;3.10;99.90;;;;;;4985024;28;21471;-63
2021/04/01 03:19:57;;;;;;;1.10;0.20;;;3.10;99.90;;;;;;4981672;28;20046;-66
2021/04/01 03:22:24;;;;;;;4.15;0.68;;;3.10;99.90;;;;;;4978666;28;20081;-63
2021/04/01 03:24:50;;;;;;;0.68;0.30;;;3.10;99.90;;;;;;4983273;28;20143;-65
2021/04/01 03:27:16;;;;;;;1.17;0.25;;;3.10;99.90;;;;;;4982405;28;20423;-63
2021/04/01 03:29:43;;;;;;;2.30;0.50;;;3.10;99.90;;;;;;4979945;28;21402;-65
2021/04/01 03:32:10;;;;;;;2.00;0.50;;;3.10;99.90;;;;;;4979440;28;20042;-64
2021/04/01 03:34:36;;;;;;;0.65;0.35;;;3.10;99.90;;;;;;4983532;28;20469;-63
2021/04/01 03:37:03;;;;;;;0.95;0.60;;;3.10;99.90;;;;;;4982963;28;20042;-66
2021/04/01 03:39:29;;;;;;;1.50;0.50;;;3.10;99.90;;;;;;4979855;28;20054;-65
2021/04/01 03:41:56;;;;;;;0.73;0.50;;;3.10;99.90;;;;;;4980800;28;20121;-66
2021/04/01 03:44:22;;;;;;;4.05;0.77;;;3.10;99.90;;;;;;4981169;28;20199;-65
2021/04/01 03:46:49;;;;;;;0.98;0.47;;;3.10;99.90;;;;;;4985441;28;20046;-63
2021/04/01 03:49:15;;;;;;;1.38;0.47;;;3.10;99.90;;;;;;4981341;28;20057;-68
2021/04/01 03:51:42;;;;;;;5.50;0.40;;;3.10;99.90;;;;;;4996960;28;20084;-64
2021/04/01 03:54:08;;;;;;;0.52;0.50;;;3.10;99.90;;;;;;4978497;28;20062;-64
2021/04/01 03:56:35;;;;;;;0.57;0.40;;;3.10;99.90;;;;;;4981771;28;20074;-65
2021/04/01 03:59:12;;;;;;;1.42;0.63;;;3.10;99.90;;;;;;4982013;28;20460;-63
2021/04/01 04:15:23;;;;;;;1.55;0.88;;;3.10;99.90;;;;;;4979466;28;20070;-66
2021/04/01 04:17:50;;;;;;;0.98;0.55;;;3.10;99.90;;;;;;4982085;28;20066;-68
2021/04/01 04:20:17;;;;;;;0.70;0.20;;;3.10;99.90;;;;;;4978291;28;20078;-66
2021/04/01 04:22:44;;;;;;;2.47;0.50;;;3.10;99.90;;;;;;4982253;28;20511;-66
2021/04/01 04:25:13;;;;;;;3.30;1.85;;;3.10;99.90;;;;;;4980781;28;20046;-66
2021/04/01 04:28:00;;;;;;;4.65;0.95;;;3.10;99.90;;;;;;4988442;28;20367;-66
2021/04/01 04:30:28;;;;;;;1.42;1.33;;;3.20;99.90;;;;;;4977297;28;20911;-64
2021/04/01 04:32:55;;;;;;;1.52;0.30;;;3.20;99.90;;;;;;4980776;28;20097;-68
2021/04/01 04:35:27;;;;;;;1.33;0.30;;;3.20;99.90;;;;;;4980978;28;20050;-64
2021/04/01 04:37:53;;;;;;;1.23;0.38;;;3.20;99.90;;;;;;4984921;28;20046;-64
2021/04/01 04:40:20;;;;;;;1.95;0.50;;;3.20;99.90;;;;;;4978464;28;20158;-65
2021/04/01 04:42:46;;;;;;;1.42;0.60;;;3.20;99.90;;;;;;4984856;28;20779;-64
2021/04/01 04:45:13;;;;;;;2.15;0.52;;;3.20;99.90;;;;;;4981686;28;20050;-64
2021/04/01 04:47:39;;;;;;;1.05;0.45;;;3.20;99.90;;;;;;4983987;28;20097;-65
2021/04/01 04:50:07;;;;;;;3.65;1.00;;;3.20;99.90;;;;;;4978643;28;20054;-62
2021/04/01 04:52:35;;;;;;;0.60;0.40;;;3.30;99.90;;;;;;4978702;28;20428;-63
2021/04/01 04:55:05;;;;;;;0.95;0.40;;;3.30;99.90;;;;;;4980167;28;20096;-69
2021/04/01 05:00:09;;;;;;;0.40;0.40;;;3.30;99.90;;;;;;4976823;28;20043;-68
2021/04/01 05:05:22;;;;;;;1.17;0.40;;;3.30;99.90;;;;;;4981072;28;20042;-65
2021/04/01 05:07:49;;;;;;;2.53;0.65;;;3.30;99.90;;;;;;4981191;28;20081;-71
2021/04/01 05:10:15;;;;;;;3.63;0.55;;;3.30;99.90;;;;;;4976349;28;20118;-65
2021/04/01 05:12:41;;;;;;;1.27;1.17;;;3.40;99.90;;;;;;4981276;28;20047;-64
2021/04/01 05:15:09;;;;;;;2.35;0.50;;;3.40;99.90;;;;;;4977576;28;20108;-68
2021/04/01 05:17:35;;;;;;;1.40;0.40;;;3.40;99.90;;;;;;4973767;28;20046;-64
2021/04/01 05:20:06;;;;;;;2.47;0.95;;;3.40;99.90;;;;;;4971005;28;20074;-64
2021/04/01 05:25:01;;;;;;;3.83;0.73;;;3.50;99.90;;;;;;4971841;28;20061;-64
2021/04/01 05:27:38;;;;;;;0.88;0.50;;;3.50;99.90;;;;;;4973524;28;20105;-65
2021/04/01 05:30:05;;;;;;;1.52;0.50;;;3.40;99.90;;;;;;4971231;28;20054;-66
2021/04/01 05:32:34;;;;;;;3.38;0.73;;;3.50;99.90;;;;;;4973705;28;20056;-69
2021/04/01 05:35:04;;;;;;;3.20;1.00;;;3.50;99.90;;;;;;4971607;28;20050;-66
2021/04/01 05:37:31;;;;;;;3.17;0.60;;;3.50;99.90;;;;;;4973845;28;20069;-66
2021/04/01 05:39:58;;;;;;;1.33;0.73;;;3.50;99.90;;;;;;4972045;28;20045;-66
2021/04/01 05:42:29;;;;;;;1.30;0.40;;;3.50;99.90;;;;;;4986687;28;20054;-67
2021/04/01 05:45:03;;;;;;;3.35;1.00;;;3.60;99.90;;;;;;4972026;28;20701;-67
2021/04/01 05:50:04;;;;;;;2.97;0.98;;;3.60;99.90;;;;;;4972010;28;20054;-64
2021/04/01 05:58:04;;;;;;;1.17;0.73;;;3.70;99.90;;;;;;4975060;28;20046;-64
2021/04/01 06:06:06;;;;;;;5.57;1.98;;;3.70;99.90;;;;;;4965607;28;20050;-66
2021/04/01 06:08:44;;;;;;;3.00;1.45;;;3.70;99.90;;;;;;4972709;28;20507;-67
2021/04/01 06:11:10;;;;;;;5.70;2.50;;;3.70;99.90;;;;;;4976996;28;20065;-65
2021/04/01 06:13:49;;;;;;;4.55;2.67;;;3.80;99.90;;;;;;4979606;28;20468;-66
2021/04/01 06:16:16;;;;;;;27.50;5.90;;;3.80;99.90;;;;;;4974508;28;20054;-64
2021/04/01 06:18:54;;;;;;;15.57;4.10;;;3.80;99.90;;;;;;4977123;28;20492;-65
2021/04/01 06:21:25;;;;;;;16.67;6.75;;;3.90;99.90;;;;;;4976990;28;20051;-64
2021/04/01 06:24:10;;;;;;;5.13;3.97;;;3.90;99.90;;;;;;4978810;28;20088;-62
2021/04/01 06:26:43;;;;;;;5.93;3.45;;;3.90;99.90;;;;;;4975230;28;20146;-63
2021/04/01 06:29:13;;;;;;;5.00;3.03;;;4.00;99.90;;;;;;4980271;28;20624;-67
2021/04/01 06:31:44;;;;;;;4.65;2.97;;;4.00;99.90;;;;;;4977377;28;20145;-70
2021/04/01 06:34:11;;;;;;;7.32;3.85;;;3.90;99.90;;;;;;4975726;28;20488;-64
2021/04/01 06:36:54;;;;;;;7.88;3.75;;;4.00;99.90;;;;;;4974617;28;20046;-67
2021/04/01 06:39:21;;;;;;;5.82;3.45;;;4.00;99.90;;;;;;4974201;28;20057;-68
2021/04/01 06:42:00;;;;;;;4.38;2.42;;;4.10;99.90;;;;;;4975231;28;20892;-66
2021/04/01 06:45:00;;;;;;;7.93;3.42;;;4.10;99.90;;;;;;4974093;28;20055;-66
2021/04/01 06:47:30;;;;;;;4.60;3.63;;;4.10;99.90;;;;;;4973820;28;20050;-70
2021/04/01 06:50:05;;;;;;;7.38;2.83;;;4.20;99.90;;;;;;4976882;28;20046;-66
2021/04/01 06:52:43;;;;;;;5.90;2.95;;;4.10;99.90;;;;;;4977863;28;20051;-66
2021/04/01 06:55:39;;;;;;;7.55;2.28;;;4.20;99.90;;;;;;4977284;28;20039;-62
2021/04/01 06:58:45;;;;;;;2.80;1.80;;;4.20;99.90;;;;;;4980735;28;20072;-63
2021/04/01 07:01:48;;;;;;;5.07;2.35;;;4.30;99.90;;;;;;4981608;28;20058;-65
2021/04/01 07:04:14;;;;;;;3.85;2.33;;;4.40;99.90;;;;;;4985464;28;20129;-65
2021/04/01 07:06:44;;;;;;;2.83;2.50;;;4.40;99.90;;;;;;4981450;28;20054;-65
2021/04/01 07:09:53;;;;;;;2.33;1.42;;;4.50;99.90;;;;;;4980192;28;20412;-68
2021/04/01 07:12:27;;;;;;;3.75;1.88;;;4.50;99.90;;;;;;4975205;28;20105;-65
2021/04/01 07:15:01;;;;;;;5.75;2.78;;;4.60;99.90;;;;;;4980808;28;20352;-63
2021/04/01 07:17:42;;;;;;;3.28;2.03;;;4.70;99.90;;;;;;4980153;28;20050;-67
2021/04/01 07:48:00;;;;;;;4.18;1.90;;;4.80;99.90;;;;;;4983555;28;20130;-65
2021/04/01 07:50:40;;;;;;;2.20;1.90;;;4.70;99.90;;;;;;4966298;28;20111;-64
2021/04/01 07:53:10;;;;;;;3.20;2.15;;;4.80;99.90;;;;;;4980899;28;20082;-64
2021/04/01 08:03:58;;;;;;;5.90;2.00;;;4.70;99.90;;;;;;4980942;28;20038;-62
2021/04/01 08:06:26;;;;;;;1.92;1.20;;;4.60;99.90;;;;;;4979525;28;20050;-63
2021/04/01 08:09:01;;;;;;;5.30;1.92;;;4.70;99.90;;;;;;4982180;28;20062;-63
2021/04/01 08:11:32;;;;;;;9.30;2.15;;;4.80;99.90;;;;;;4982205;28;20467;-68
2021/04/01 08:14:13;;;;;;;8.07;2.72;;;4.80;99.90;;;;;;4981752;28;20046;-67
2021/04/01 08:16:52;;;;;;;7.35;3.08;;;4.80;99.90;;;;;;4974021;28;20074;-66
2021/04/01 08:19:21;;;;;;;7.43;3.85;;;4.90;99.90;;;;;;4981307;28;20646;-64
2021/04/01 08:22:15;;;;;;;11.82;5.15;;;4.90;99.90;;;;;;4991424;28;20135;-63
2021/04/01 08:25:05;;;;;;;8.57;2.78;;;4.80;99.90;;;;;;4979322;28;20479;-66
2021/04/01 08:28:03;;;;;;;;;;;4.70;99.90;;;;;;4975576;28;20046;-64
2021/04/01 08:37:06;;;;;;;3.05;1.67;;;4.60;99.90;;;;;;4979062;28;20130;-65
2021/04/01 08:39:54;;;;;;;3.28;1.00;;;4.60;99.90;;;;;;4977219;28;20053;-64
2021/04/01 08:43:08;;;;;;;4.72;1.00;;;4.70;99.90;;;;;;4978751;28;20057;-64
2021/04/01 08:46:25;;;;;;;3.42;1.25;;;4.70;99.90;;;;;;4980659;28;20470;-65
2021/04/01 08:49:22;;;;;;;10.32;2.45;;;4.80;99.90;;;;;;4978723;28;20201;-67
2021/04/01 08:52:03;;;;;;;4.07;1.40;;;4.90;99.90;;;;;;4980677;28;20170;-64
2021/04/01 08:54:38;;;;;;;7.47;1.80;;;4.90;99.90;;;;;;4977338;28;20058;-65
2021/04/01 08:57:15;;;;;;;7.28;1.27;;;4.90;99.90;;;;;;4982539;28;20058;-64
2021/04/01 09:00:18;;;;;;;7.80;1.10;;;5.00;99.90;;;;;;4977762;28;20393;-64
2021/04/01 09:02:53;;;;;;;5.00;1.27;;;5.00;99.90;;;;;;4968503;28;20050;-67
2021/04/01 09:05:21;;;;;;;2.38;0.57;;;5.10;99.90;;;;;;4974275;28;20047;-66
2021/04/01 09:08:00;;;;;;;1.30;0.63;;;5.10;99.90;;;;;;4975882;28;20077;-63
2021/04/01 09:10:39;;;;;;;3.33;0.90;;;5.00;99.90;;;;;;4975737;28;20058;-65
2021/04/01 09:13:13;;;;;;;4.68;0.57;;;4.90;99.90;;;;;;4977931;28;20137;-64
2021/04/01 09:18:28;;;;;;;4.97;1.27;;;5.00;99.90;;;;;;4980667;28;20046;-62
2021/04/01 09:20:57;;;;;;;4.82;1.65;;;5.10;99.90;;;;;;4978974;28;20042;-66
2021/04/01 09:23:36;;;;;;;4.43;1.40;;;5.10;99.90;;;;;;4971346;28;20062;-66
2021/04/01 09:26:05;;;;;;;3.15;1.80;;;5.10;99.90;;;;;;4979044;28;20050;-64
2021/04/01 09:28:34;;;;;;;5.60;1.00;;;5.20;99.90;;;;;;4979800;28;20117;-62
2021/04/01 09:31:04;;;;;;;1.52;0.50;;;5.10;99.90;;;;;;4980721;28;20149;-64
2021/04/01 09:33:34;;;;;;;0.88;0.60;;;5.10;99.90;;;;;;4977005;28;20112;-68
2021/04/01 09:36:17;;;;;;;1.83;0.70;;;5.10;99.90;;;;;;4977894;28;20054;-64
2021/04/01 09:38:51;;;;;;;4.40;0.70;;;5.20;99.90;;;;;;4978845;28;20053;-65
2021/04/01 09:41:33;;;;;;;2.92;1.02;;;5.10;99.90;;;;;;4978155;28;20412;-65
2021/04/01 09:44:04;;;;;;;6.45;0.95;;;5.20;99.90;;;;;;4979618;28;20830;-69
2021/04/01 09:47:15;;;;;;;3.47;0.98;;;5.20;99.90;;;;;;4979984;28;20125;-62
2021/04/01 09:49:54;;;;;;;1.85;0.73;;;5.20;99.90;;;;;;4977439;28;20047;-64
2021/04/01 09:52:26;;;;;;;5.45;1.00;;;5.10;99.90;;;;;;4977532;28;20081;-67
2021/04/01 09:54:59;;;;;;;4.30;1.58;;;5.10;99.90;;;;;;4976404;28;20042;-63
2021/04/01 09:57:44;;;;;;;11.18;1.10;;;5.20;99.90;;;;;;4975670;28;20062;-66
2021/04/01 10:00:37;;;;;;;1.00;0.55;;;5.20;99.90;;;;;;4977749;28;20046;-64
2021/04/01 10:03:22;;;;;;;4.28;1.30;;;5.20;99.90;;;;;;4983657;28;20079;-64
2021/04/01 10:05:51;;;;;;;2.05;0.63;;;5.20;99.90;;;;;;4972727;28;20484;-63
2021/04/01 10:08:26;;;;;;;1.38;0.50;;;5.30;99.90;;;;;;4978761;28;20053;-66
2021/04/01 10:11:00;;;;;;;3.72;0.73;;;5.30;99.90;;;;;;4977973;28;20120;-65
2021/04/01 10:13:30;;;;;;;2.80;0.70;;;5.30;99.90;;;;;;4974714;28;20054;-66
2021/04/01 10:15:58;;;;;;;1.73;0.95;;;5.30;99.90;;;;;;4978012;28;20050;-63
2021/04/01 10:18:31;;;;;;;2.17;0.85;;;5.30;99.90;;;;;;4973331;28;20590;-63
2021/04/01 10:21:04;;;;;;;2.40;0.63;;;5.30;99.90;;;;;;4991278;28;20084;-65
2021/04/01 10:23:54;;;;;;;3.72;0.68;;;5.30;99.90;;;;;;4977973;28;20046;-64
2021/04/01 10:26:30;;;;;;;3.97;0.90;;;5.20;99.90;;;;;;4973878;28;20050;-64
2021/04/01 10:31:43;;;;;;;2.45;0.85;;;5.30;99.90;;;;;;4977140;28;20057;-64
2021/04/01 10:34:21;;;;;;;4.45;0.68;;;5.40;99.90;;;;;;4977033;28;20536;-65
2021/04/01 10:36:50;;;;;;;1.83;0.52;;;5.40;99.90;;;;;;4978316;28;20042;-66
2021/04/01 10:39:18;;;;;;;1.27;0.50;;;5.40;99.90;;;;;;4980200;28;20046;-63
2021/04/01 10:41:49;;;;;;;5.65;3.22;;;5.40;99.90;;;;;;4979225;28;20054;-65
2021/04/01 10:44:18;;;;;;;0.57;0.57;;;5.40;99.90;;;;;;4975256;28;20460;-65
2021/04/01 10:46:49;;;;;;;7.78;1.30;;;5.40;99.90;;;;;;4978701;28;20050;-64
2021/04/01 10:49:21;;;;;;;3.70;0.93;;;5.40;99.90;;;;;;4995839;28;20042;-68
2021/04/01 10:51:52;;;;;;;6.00;0.80;;;5.50;99.90;;;;;;4978281;28;20058;-64
2021/04/01 10:54:22;;;;;;;2.33;0.70;;;5.70;99.90;;;;;;4977985;28;20046;-63
2021/04/01 10:56:55;;;;;;;1.35;0.63;;;5.70;99.90;;;;;;4978763;28;20465;-63
2021/04/01 10:59:37;;;;;;;4.05;0.80;;;5.70;99.90;;;;;;4978714;28;20034;-63
2021/04/01 11:02:11;;;;;;;5.78;1.23;;;5.70;99.90;;;;;;4974430;28;20774;-64
2021/04/01 11:04:40;;;;;;;1.65;1.10;;;5.50;99.90;;;;;;4976228;28;20062;-69
2021/04/01 11:07:08;;;;;;;3.33;0.80;;;5.60;99.90;;;;;;4979260;28;20130;-65
2021/04/01 11:09:35;;;;;;;6.05;1.50;;;5.70;99.90;;;;;;4979632;28;20046;-64
2021/04/01 11:12:15;;;;;;;3.22;0.73;;;5.70;99.90;;;;;;4977170;28;20448;-64
2021/04/01 11:14:53;;;;;;;1.40;0.35;;;5.90;99.90;;;;;;4975792;28;20507;-63
2021/04/01 11:17:24;;;;;;;2.20;0.60;;;5.80;99.90;;;;;;4978805;28;20050;-64
2021/04/01 11:19:58;;;;;;;14.80;1.35;;;5.80;99.90;;;;;;4978341;28;20042;-63
2021/04/01 11:22:25;;;;;;;1.75;0.50;;;5.90;99.90;;;;;;4977842;28;20053;-63
2021/04/01 11:24:51;;;;;;;4.18;0.68;;;6.00;99.90;;;;;;4973592;28;20050;-64
2021/04/01 11:27:20;;;;;;;1.02;0.70;;;5.80;99.90;;;;;;4975318;28;20067;-63
2021/04/01 11:29:52;;;;;;;2.63;0.70;;;5.90;99.90;;;;;;4975766;28;20054;-67
2021/04/01 11:32:30;;;;;;;4.13;1.75;;;6.00;99.90;;;;;;4974779;28;20062;-67
2021/04/01 11:34:59;;;;;;;6.45;1.30;;;5.90;99.90;;;;;;4977996;28;20154;-66
2021/04/01 11:37:32;;;;;;;4.47;1.00;;;6.00;99.90;;;;;;4981359;28;20050;-66
2021/04/01 11:40:09;;;;;;;5.72;1.00;;;5.90;99.90;;;;;;4978214;28;20300;-63
2021/04/01 11:42:35;;;;;;;1.45;0.68;;;5.80;99.90;;;;;;4981690;28;20134;-63
2021/04/01 11:45:07;;;;;;;3.97;1.52;;;6.00;99.90;;;;;;4979775;28;20054;-65
2021/04/01 11:47:39;;;;;;;1.25;0.70;;;6.00;99.90;;;;;;4982775;28;20123;-64
2021/04/01 11:50:07;;;;;;;1.73;0.40;;;5.90;99.90;;;;;;4977807;28;20046;-65
2021/04/01 11:52:33;;;;;;;4.30;1.17;;;5.90;99.90;;;;;;4978332;28;20054;-63
2021/04/01 11:55:13;;;;;;;4.68;1.25;;;6.00;99.90;;;;;;4976294;28;20065;-64
2021/04/01 11:57:43;;;;;;;2.45;0.73;;;6.00;99.90;;;;;;4976650;28;20109;-63
2021/04/01 12:00:19;;;;;;;4.57;0.95;;;6.00;99.90;;;;;;4976676;28;20070;-66
2021/04/01 12:05:23;;;;;;;5.57;1.08;;;5.80;99.90;;;;;;4978518;28;20054;-66
2021/04/01 12:07:49;;;;;;;3.00;1.05;;;5.90;99.90;;;;;;4981244;28;20076;-67
2021/04/01 12:10:16;;;;;;;2.83;1.20;;;6.00;99.90;;;;;;4976595;28;20527;-66
2021/04/01 12:12:43;;;;;;;4.70;2.05;;;6.00;99.90;;;;;;4979921;28;20046;-63
2021/04/01 12:15:11;;;;;;;2.53;1.73;;;6.10;99.90;;;;;;4975825;28;20369;-67
2021/04/01 12:17:40;;;;;;;3.15;1.73;;;6.20;99.90;;;;;;4981514;28;20058;-68
2021/04/01 12:20:13;;;;;;;10.60;1.13;;;6.30;99.90;;;;;;4976748;28;20140;-66
2021/04/01 12:22:42;;;;;;;7.18;1.83;;;6.10;99.90;;;;;;4979220;28;20404;-64
2021/04/01 12:25:12;;;;;;;5.90;1.23;;;6.20;99.90;;;;;;4979006;28;20058;-63
2021/04/01 12:27:38;;;;;;;2.97;1.25;;;6.30;99.90;;;;;;4996931;28;20056;-65
2021/04/01 12:30:09;;;;;;;4.82;1.63;;;6.20;99.90;;;;;;4974790;28;20073;-63
2021/04/01 12:32:37;;;;;;;2.33;1.67;;;6.20;99.90;;;;;;4979704;28;20046;-63
2021/04/01 12:35:15;;;;;;;2.97;1.05;;;6.30;99.90;;;;;;4983279;28;20523;-62
2021/04/01 12:37:43;;;;;;;5.13;2.95;;;6.20;99.90;;;;;;4981017;28;20049;-63
2021/04/01 12:40:16;;;;;;;6.75;1.50;;;6.30;99.90;;;;;;4979256;28;20054;-64
2021/04/01 12:42:43;;;;;;;5.93;1.35;;;6.10;99.90;;;;;;4982022;28;20450;-65
2021/04/01 12:45:17;;;;;;;2.50;1.13;;;6.20;99.90;;;;;;4978464;28;20042;-64
2021/04/01 12:47:44;;;;;;;4.95;1.90;;;6.20;99.90;;;;;;4983401;28;20054;-62
2021/04/01 12:50:12;;;;;;;2.80;1.40;;;6.10;99.90;;;;;;4979506;28;20078;-63
2021/04/01 12:52:46;;;;;;;2.00;1.27;;;6.20;99.90;;;;;;4976591;28;20058;-64
2021/04/01 12:55:47;;;;;;;6.05;1.38;;;6.30;99.90;;;;;;4979280;28;20499;-68
2021/04/01 13:03:50;;;;;;;3.47;2.00;;;6.20;99.90;;;;;;4977407;28;20408;-67
2021/04/01 13:06:22;;;;;;;5.50;2.92;;;6.20;99.90;;;;;;4976144;28;20530;-67
2021/04/01 13:11:27;;;;;;;2.25;1.40;;;6.30;99.90;;;;;;4979884;28;20448;-68
2021/04/01 13:13:55;;;;;;;7.00;1.90;;;6.30;99.90;;;;;;4982362;28;20172;-65
2021/04/01 13:16:21;;;;;;;6.80;1.65;;;6.40;99.90;;;;;;4973148;28;20061;-68
2021/04/01 13:18:48;;;;;;;6.35;1.80;;;6.30;99.90;;;;;;4982098;28;20562;-64
2021/04/01 13:26:32;;;;;;;5.15;1.50;;;6.50;99.90;;;;;;4976024;28;20439;-65
2021/04/01 13:29:00;;;;;;;2.83;0.82;;;6.40;99.90;;;;;;4983195;28;20439;-66
2021/04/01 13:31:40;;;;;;;2.10;1.10;;;6.50;99.90;;;;;;4978917;28;20050;-65
2021/04/01 13:34:51;;;;;;;7.93;1.73;;;6.40;99.90;;;;;;4979555;28;20057;-68
2021/04/01 13:37:08;;;;;;;3.15;1.02;;;6.20;99.90;;;;;;4978014;28;20082;-65
2021/04/01 13:39:46;;;;;;;5.43;0.90;;;6.30;99.90;;;;;;4978387;28;20421;-65
2021/04/01 13:47:13;;;;;;;4.57;1.33;;;6.60;99.90;;;;;;4979819;28;20069;-64
2021/04/01 13:49:41;;;;;;;3.38;0.60;;;6.40;99.90;;;;;;4983711;28;20116;-64
2021/04/01 13:52:23;;;;;;;4.47;1.13;;;6.60;99.90;;;;;;4977421;28;20046;-64
2021/04/01 13:55:00;;;;;;;3.80;0.80;;;6.70;99.90;;;;;;4981036;28;20050;-66
2021/04/01 14:11:19;;;;;;;1.58;0.70;;;6.90;99.90;;;;;;4976604;28;20123;-65
2021/04/01 14:13:46;;;;;;;4.97;0.88;;;7.20;99.90;;;;;;4979653;28;20050;-66
2021/04/01 14:16:16;;;;;;;2.05;0.68;;;7.40;99.90;;;;;;4976631;28;20057;-66
2021/04/01 14:18:45;;;;;;;2.85;0.80;;;7.40;99.90;;;;;;4979196;28;20076;-63
2021/04/01 14:21:13;;;;;;;1.75;0.73;;;7.40;99.90;;;;;;4976614;28;20058;-63
2021/04/01 14:23:41;;;;;;;2.15;0.70;;;7.40;99.90;;;;;;4975797;28;20058;-63
2021/04/01 14:26:18;;;;;;;4.13;1.33;;;7.10;99.90;;;;;;4976902;28;20347;-63
2021/04/01 14:28:44;;;;;;;2.88;1.13;;;6.90;99.90;;;;;;4979601;28;20066;-62
2021/04/01 14:31:12;;;;;;;1.00;0.65;;;7.10;99.90;;;;;;4977551;28;20058;-64
2021/04/01 14:33:41;;;;;;;7.43;1.23;;;7.30;99.90;;;;;;4978544;28;20046;-63
2021/04/01 14:36:19;;;;;;;1.70;0.70;;;7.20;99.90;;;;;;4978757;28;20148;-69
2021/04/01 14:38:46;;;;;;;7.47;1.60;;;7.40;99.90;;;;;;4978293;28;20066;-66
2021/04/01 14:41:20;;;;;;;7.50;2.55;;;7.60;99.90;;;;;;4985160;28;20519;-67
2021/04/01 14:44:29;;;;;;;2.75;1.17;;;7.60;99.90;;;;;;4979438;28;20082;-64
2021/04/01 14:46:36;;;;;;;7.55;1.48;;;7.70;99.90;;;;;;4979537;28;20051;-63
2021/04/01 14:49:06;;;;;;;2.50;1.10;;;7.50;99.90;;;;;;4975481;28;20074;-65
2021/04/01 14:51:34;;;;;;;22.42;3.70;;;7.40;99.90;;;;;;4976759;28;20603;-65
2021/04/01 14:54:05;;;;;;;5.30;1.60;;;7.20;99.90;;;;;;4975502;28;20456;-64
2021/04/01 14:56:34;;;;;;;6.35;0.90;;;7.20;99.90;;;;;;4980067;28;20086;-63
2021/04/01 14:59:07;;;;;;;2.65;0.50;;;7.40;99.90;;;;;;4978981;28;20174;-66
2021/04/01 15:01:44;;;;;;;1.45;0.43;;;7.30;99.90;;;;;;4983617;28;20046;-63
2021/04/01 15:04:12;;;;;;;1.02;0.47;;;7.50;99.90;;;;;;4977112;28;20126;-66
2021/04/01 15:06:39;;;;;;;0.57;0.32;;;7.20;99.90;;;;;;4976293;28;20069;-64
2021/04/01 15:09:07;;;;;;;1.20;0.20;;;7.40;99.90;;;;;;4976813;28;20057;-66
2021/04/01 15:11:35;;;;;;;4.88;0.68;;;7.10;99.90;;;;;;4980913;28;20073;-68
2021/04/01 15:14:02;;;;;;;2.50;0.73;;;7.30;99.90;;;;;;4980342;28;20050;-65
2021/04/01 15:16:28;;;;;;;0.73;0.50;;;7.60;99.90;;;;;;4978709;28;20046;-66
2021/04/01 15:18:55;;;;;;;2.80;0.43;;;7.80;99.90;;;;;;4982534;28;20484;-67